sensor_id;sensor_type;location;lat;lon;timestamp;P1;durP1;ratioP1;P2;durP2;ratioP2
21120;SDS011;12519;43.318;21.898;2023-04-09T00:01:19;67.0;;;45.0;;
21120;SDS011;12519;43.318;21.898;2023-04-09T00:05:56;67.0;;;45.0;;
21120;SDS011;12519;43.318;21.898;2023-04-09T00:10:33;82.0;;;56.0;;
21120;SDS011;12519;43.318;21.898;2023-04-09T00:15:10;82.0;;;56.0;;
21120;SDS011;12519;43.318;21.898;2023-04-09T00:19:47;97.0;;;66.0;;
21120;SDS011;12519;43.318;21.898;2023-04-09T00:24:24;97.0;;;66.0;;
21120;SDS011;12519;43.318;21.898;2023-04-09T00:29:01;72.0;;;54.0;;
21120;SDS011;12519;43.318;21.898;2023-04-09T00:33:38;72.0;;;54.0;;
21120;SDS011;12519;43.318;21.898;2023-04-09T00:38:15;46.0;;;41.0;;
21120;SDS011;12519;43.318;21.898;2023-04-09T00:42:52;46.0;;;41.0;;
21120;SDS011;12519;43.318;21.898;2023-04-09T00:47:30;47.0;;;40.0;;
21120;SDS011;12519;43.318;21.898;2023-04-09T00:52:09;47.0;;;40.0;;
21120;SDS011;12519;43.318;21.898;2023-04-09T00:56:47;48.0;;;39.0;;
21120;SDS011;12519;43.318;21.898;2023-04-09T01:01:24;48.0;;;39.0;;
21120;SDS011;12519;43.318;21.898;2023-04-09T01:06:32;48.0;;;39.0;;
21120;SDS011;12519;43.318;21.898;2023-04-09T01:11:46;44.0;;;37.0;;
21120;SDS011;12519;43.318;21.898;2023-04-09T01:16:59;41.0;;;35.0;;
21120;SDS011;12519;43.318;21.898;2023-04-09T01:21:41;41.0;;;35.0;;
21120;SDS011;12519;43.318;21.898;2023-04-09T01:26:44;41.0;;;35.0;;
21120;SDS011;12519;43.318;21.898;2023-04-09T01:31:37;38.0;;;32.0;;
21120;SDS011;12519;43.318;21.898;2023-04-09T01:36:21;38.0;;;32.0;;
21120;SDS011;12519;43.318;21.898;2023-04-09T01:41:04;36.0;;;29.0;;
21120;SDS011;12519;43.318;21.898;2023-04-09T01:45:46;36.0;;;29.0;;
21120;SDS011;12519;43.318;21.898;2023-04-09T01:50:26;38.0;;;30.0;;
21120;SDS011;12519;43.318;21.898;2023-04-09T01:55:06;38.0;;;30.0;;
21120;SDS011;12519;43.318;21.898;2023-04-09T01:59:44;40.0;;;30.0;;
21120;SDS011;12519;43.318;21.898;2023-04-09T02:04:31;40.0;;;30.0;;
21120;SDS011;12519;43.318;21.898;2023-04-09T02:09:20;42.0;;;32.0;;
21120;SDS011;12519;43.318;21.898;2023-04-09T02:14:07;42.0;;;32.0;;
21120;SDS011;12519;43.318;21.898;2023-04-09T02:18:52;44.0;;;34.0;;
21120;SDS011;12519;43.318;21.898;2023-04-09T02:23:31;44.0;;;34.0;;
21120;SDS011;12519;43.318;21.898;2023-04-09T02:28:08;42.0;;;32.0;;
21120;SDS011;12519;43.318;21.898;2023-04-09T02:32:45;42.0;;;32.0;;
21120;SDS011;12519;43.318;21.898;2023-04-09T02:37:22;40.0;;;31.0;;
21120;SDS011;12519;43.318;21.898;2023-04-09T02:41:59;40.0;;;31.0;;
21120;SDS011;12519;43.318;21.898;2023-04-09T02:46:38;40.0;;;31.0;;
21120;SDS011;12519;43.318;21.898;2023-04-09T02:51:17;34.0;;;28.0;;
21120;SDS011;12519;43.318;21.898;2023-04-09T02:55:55;34.0;;;28.0;;
21120;SDS011;12519;43.318;21.898;2023-04-09T03:00:32;29.0;;;25.0;;
21120;SDS011;12519;43.318;21.898;2023-04-09T03:05:09;29.0;;;25.0;;
21120;SDS011;12519;43.318;21.898;2023-04-09T03:09:46;32.0;;;24.0;;
21120;SDS011;12519;43.318;21.898;2023-04-09T03:14:23;32.0;;;24.0;;
21120;SDS011;12519;43.318;21.898;2023-04-09T03:19:00;34.0;;;23.0;;
21120;SDS011;12519;43.318;21.898;2023-04-09T03:23:37;34.0;;;23.0;;
21120;SDS011;12519;43.318;21.898;2023-04-09T03:28:14;31.0;;;24.0;;
21120;SDS011;12519;43.318;21.898;2023-04-09T03:32:51;31.0;;;24.0;;
21120;SDS011;12519;43.318;21.898;2023-04-09T03:37:28;28.0;;;24.0;;
21120;SDS011;12519;43.318;21.898;2023-04-09T03:42:05;28.0;;;24.0;;
21120;SDS011;12519;43.318;21.898;2023-04-09T03:46:43;28.0;;;24.0;;
21120;SDS011;12519;43.318;21.898;2023-04-09T03:51:20;33.0;;;26.0;;
21120;SDS011;12519;43.318;21.898;2023-04-09T03:55:56;33.0;;;26.0;;
21120;SDS011;12519;43.318;21.898;2023-04-09T04:00:33;38.0;;;29.0;;
21120;SDS011;12519;43.318;21.898;2023-04-09T04:05:09;38.0;;;29.0;;
21120;SDS011;12519;43.318;21.898;2023-04-09T04:09:45;38.0;;;30.0;;
21120;SDS011;12519;43.318;21.898;2023-04-09T04:14:22;38.0;;;30.0;;
21120;SDS011;12519;43.318;21.898;2023-04-09T04:18:58;39.0;;;32.0;;
21120;SDS011;12519;43.318;21.898;2023-04-09T04:23:35;39.0;;;32.0;;
21120;SDS011;12519;43.318;21.898;2023-04-09T04:28:11;40.0;;;30.0;;
21120;SDS011;12519;43.318;21.898;2023-04-09T04:32:49;40.0;;;30.0;;
21120;SDS011;12519;43.318;21.898;2023-04-09T04:37:26;41.0;;;29.0;;
21120;SDS011;12519;43.318;21.898;2023-04-09T04:42:02;41.0;;;29.0;;
21120;SDS011;12519;43.318;21.898;2023-04-09T04:46:39;41.0;;;29.0;;
21120;SDS011;12519;43.318;21.898;2023-04-09T04:51:16;38.0;;;29.0;;
21120;SDS011;12519;43.318;21.898;2023-04-09T04:55:53;38.0;;;29.0;;
21120;SDS011;12519;43.318;21.898;2023-04-09T05:00:31;36.0;;;29.0;;
21120;SDS011;12519;43.318;21.898;2023-04-09T05:05:08;36.0;;;29.0;;
21120;SDS011;12519;43.318;21.898;2023-04-09T05:09:45;38.0;;;30.0;;
21120;SDS011;12519;43.318;21.898;2023-04-09T05:14:22;38.0;;;30.0;;
21120;SDS011;12519;43.318;21.898;2023-04-09T05:18:59;41.0;;;30.0;;
21120;SDS011;12519;43.318;21.898;2023-04-09T05:23:35;41.0;;;30.0;;
21120;SDS011;12519;43.318;21.898;2023-04-09T05:28:12;43.0;;;31.0;;
21120;SDS011;12519;43.318;21.898;2023-04-09T05:32:49;43.0;;;31.0;;
21120;SDS011;12519;43.318;21.898;2023-04-09T05:37:25;45.0;;;32.0;;
21120;SDS011;12519;43.318;21.898;2023-04-09T05:42:02;45.0;;;32.0;;
21120;SDS011;12519;43.318;21.898;2023-04-09T05:46:39;45.0;;;32.0;;
21120;SDS011;12519;43.318;21.898;2023-04-09T05:51:16;43.0;;;33.0;;
21120;SDS011;12519;43.318;21.898;2023-04-09T05:55:53;43.0;;;33.0;;
21120;SDS011;12519;43.318;21.898;2023-04-09T06:00:30;41.0;;;34.0;;
21120;SDS011;12519;43.318;21.898;2023-04-09T06:05:08;41.0;;;34.0;;
21120;SDS011;12519;43.318;21.898;2023-04-09T06:09:45;37.0;;;32.0;;
21120;SDS011;12519;43.318;21.898;2023-04-09T06:14:22;37.0;;;32.0;;
21120;SDS011;12519;43.318;21.898;2023-04-09T06:18:59;33.0;;;29.0;;
21120;SDS011;12519;43.318;21.898;2023-04-09T06:23:36;33.0;;;29.0;;
21120;SDS011;12519;43.318;21.898;2023-04-09T06:28:12;30.0;;;26.0;;
21120;SDS011;12519;43.318;21.898;2023-04-09T06:32:50;30.0;;;26.0;;
21120;SDS011;12519;43.318;21.898;2023-04-09T06:37:26;30.0;;;26.0;;
21120;SDS011;12519;43.318;21.898;2023-04-09T06:42:02;26.0;;;24.0;;
21120;SDS011;12519;43.318;21.898;2023-04-09T06:46:39;26.0;;;24.0;;
21120;SDS011;12519;43.318;21.898;2023-04-09T06:51:15;26.0;;;24.0;;
21120;SDS011;12519;43.318;21.898;2023-04-09T06:55:51;26.0;;;24.0;;
21120;SDS011;12519;43.318;21.898;2023-04-09T07:00:28;25.0;;;23.0;;
21120;SDS011;12519;43.318;21.898;2023-04-09T07:05:06;25.0;;;23.0;;
21120;SDS011;12519;43.318;21.898;2023-04-09T07:09:44;31.0;;;24.0;;
21120;SDS011;12519;43.318;21.898;2023-04-09T07:14:21;31.0;;;24.0;;
21120;SDS011;12519;43.318;21.898;2023-04-09T07:18:57;37.0;;;26.0;;
21120;SDS011;12519;43.318;21.898;2023-04-09T07:23:35;37.0;;;26.0;;
21120;SDS011;12519;43.318;21.898;2023-04-09T07:28:12;36.0;;;28.0;;
21120;SDS011;12519;43.318;21.898;2023-04-09T07:32:49;36.0;;;28.0;;
21120;SDS011;12519;43.318;21.898;2023-04-09T07:37:26;36.0;;;28.0;;
21120;SDS011;12519;43.318;21.898;2023-04-09T07:42:04;36.0;;;29.0;;
21120;SDS011;12519;43.318;21.898;2023-04-09T07:46:43;36.0;;;29.0;;
21120;SDS011;12519;43.318;21.898;2023-04-09T07:51:20;33.0;;;28.0;;
21120;SDS011;12519;43.318;21.898;2023-04-09T07:55:56;33.0;;;28.0;;
21120;SDS011;12519;43.318;21.898;2023-04-09T08:00:33;30.0;;;28.0;;
21120;SDS011;12519;43.318;21.898;2023-04-09T08:05:10;30.0;;;28.0;;
21120;SDS011;12519;43.318;21.898;2023-04-09T08:09:46;34.0;;;26.0;;
21120;SDS011;12519;43.318;21.898;2023-04-09T08:14:23;34.0;;;26.0;;
21120;SDS011;12519;43.318;21.898;2023-04-09T08:18:59;39.0;;;25.0;;
21120;SDS011;12519;43.318;21.898;2023-04-09T08:23:36;39.0;;;25.0;;
21120;SDS011;12519;43.318;21.898;2023-04-09T08:28:12;32.0;;;23.0;;
21120;SDS011;12519;43.318;21.898;2023-04-09T08:32:49;32.0;;;23.0;;
21120;SDS011;12519;43.318;21.898;2023-04-09T08:37:25;32.0;;;23.0;;
21120;SDS011;12519;43.318;21.898;2023-04-09T08:42:06;24.0;;;21.0;;
21120;SDS011;12519;43.318;21.898;2023-04-09T08:46:49;24.0;;;21.0;;
21120;SDS011;12519;43.318;21.898;2023-04-09T08:51:26;26.0;;;23.0;;
21120;SDS011;12519;43.318;21.898;2023-04-09T08:56:04;26.0;;;23.0;;
21120;SDS011;12519;43.318;21.898;2023-04-09T09:00:41;27.0;;;25.0;;
21120;SDS011;12519;43.318;21.898;2023-04-09T09:05:37;27.0;;;25.0;;
21120;SDS011;12519;43.318;21.898;2023-04-09T09:10:19;28.0;;;24.0;;
21120;SDS011;12519;43.318;21.898;2023-04-09T09:15:27;28.0;;;24.0;;
21120;SDS011;12519;43.318;21.898;2023-04-09T09:20:20;28.0;;;23.0;;
21120;SDS011;12519;43.318;21.898;2023-04-09T09:24:57;28.0;;;23.0;;
21120;SDS011;12519;43.318;21.898;2023-04-09T09:29:40;30.0;;;25.0;;
21120;SDS011;12519;43.318;21.898;2023-04-09T09:34:21;30.0;;;25.0;;
21120;SDS011;12519;43.318;21.898;2023-04-09T09:39:01;32.0;;;27.0;;
21120;SDS011;12519;43.318;21.898;2023-04-09T09:43:40;32.0;;;27.0;;
21120;SDS011;12519;43.318;21.898;2023-04-09T09:48:16;30.0;;;26.0;;
21120;SDS011;12519;43.318;21.898;2023-04-09T09:53:04;30.0;;;26.0;;
21120;SDS011;12519;43.318;21.898;2023-04-09T09:57:49;30.0;;;26.0;;
21120;SDS011;12519;43.318;21.898;2023-04-09T10:02:53;28.0;;;24.0;;
21120;SDS011;12519;43.318;21.898;2023-04-09T10:07:50;28.0;;;24.0;;
21120;SDS011;12519;43.318;21.898;2023-04-09T10:12:34;27.0;;;22.0;;
21120;SDS011;12519;43.318;21.898;2023-04-09T10:17:12;27.0;;;22.0;;
21120;SDS011;12519;43.318;21.898;2023-04-09T10:22:02;26.0;;;21.0;;
21120;SDS011;12519;43.318;21.898;2023-04-09T10:26:56;26.0;;;21.0;;
21120;SDS011;12519;43.318;21.898;2023-04-09T10:31:53;28.0;;;23.0;;
21120;SDS011;12519;43.318;21.898;2023-04-09T10:36:43;28.0;;;23.0;;
21120;SDS011;12519;43.318;21.898;2023-04-09T10:41:29;29.0;;;25.0;;
21120;SDS011;12519;43.318;21.898;2023-04-09T10:46:28;29.0;;;25.0;;
21120;SDS011;12519;43.318;21.898;2023-04-09T10:51:18;26.0;;;22.0;;
21120;SDS011;12519;43.318;21.898;2023-04-09T10:55:55;26.0;;;22.0;;
21120;SDS011;12519;43.318;21.898;2023-04-09T11:00:38;22.0;;;19.0;;
21120;SDS011;12519;43.318;21.898;2023-04-09T11:05:31;22.0;;;19.0;;
21120;SDS011;12519;43.318;21.898;2023-04-09T11:10:11;21.0;;;19.0;;
21120;SDS011;12519;43.318;21.898;2023-04-09T11:14:48;21.0;;;19.0;;
21120;SDS011;12519;43.318;21.898;2023-04-09T11:19:25;20.0;;;19.0;;
21120;SDS011;12519;43.318;21.898;2023-04-09T11:24:02;20.0;;;19.0;;
21120;SDS011;12519;43.318;21.898;2023-04-09T11:28:42;24.0;;;22.0;;
21120;SDS011;12519;43.318;21.898;2023-04-09T11:33:20;24.0;;;22.0;;
21120;SDS011;12519;43.318;21.898;2023-04-09T11:37:56;24.0;;;22.0;;
21120;SDS011;12519;43.318;21.898;2023-04-09T11:42:34;28.0;;;25.0;;
21120;SDS011;12519;43.318;21.898;2023-04-09T11:47:13;28.0;;;25.0;;
21120;SDS011;12519;43.318;21.898;2023-04-09T11:51:52;30.0;;;26.0;;
21120;SDS011;12519;43.318;21.898;2023-04-09T11:56:30;30.0;;;26.0;;
21120;SDS011;12519;43.318;21.898;2023-04-09T12:01:09;32.0;;;28.0;;
21120;SDS011;12519;43.318;21.898;2023-04-09T12:05:46;32.0;;;28.0;;
21120;SDS011;12519;43.318;21.898;2023-04-09T12:10:29;36.0;;;30.0;;
21120;SDS011;12519;43.318;21.898;2023-04-09T12:15:20;36.0;;;30.0;;
21120;SDS011;12519;43.318;21.898;2023-04-09T12:19:59;41.0;;;33.0;;
21120;SDS011;12519;43.318;21.898;2023-04-09T12:24:35;41.0;;;33.0;;
21120;SDS011;12519;43.318;21.898;2023-04-09T12:29:14;34.0;;;28.0;;
21120;SDS011;12519;43.318;21.898;2023-04-09T12:33:55;34.0;;;28.0;;
21120;SDS011;12519;43.318;21.898;2023-04-09T12:38:32;27.0;;;24.0;;
21120;SDS011;12519;43.318;21.898;2023-04-09T12:43:08;27.0;;;24.0;;
21120;SDS011;12519;43.318;21.898;2023-04-09T12:47:45;27.0;;;24.0;;
21120;SDS011;12519;43.318;21.898;2023-04-09T12:52:23;27.0;;;24.0;;
21120;SDS011;12519;43.318;21.898;2023-04-09T12:57:00;27.0;;;24.0;;
21120;SDS011;12519;43.318;21.898;2023-04-09T13:10:50;35.0;;;32.0;;
21120;SDS011;12519;43.318;21.898;2023-04-09T13:15:27;35.0;;;32.0;;
21120;SDS011;12519;43.318;21.898;2023-04-09T13:20:06;35.0;;;32.0;;
21120;SDS011;12519;43.318;21.898;2023-04-09T13:24:43;35.0;;;32.0;;
21120;SDS011;12519;43.318;21.898;2023-04-09T13:29:20;32.0;;;28.0;;
21120;SDS011;12519;43.318;21.898;2023-04-09T13:33:56;32.0;;;28.0;;
21120;SDS011;12519;43.318;21.898;2023-04-09T13:38:33;30.0;;;25.0;;
21120;SDS011;12519;43.318;21.898;2023-04-09T13:43:09;30.0;;;25.0;;
21120;SDS011;12519;43.318;21.898;2023-04-09T13:47:46;30.0;;;25.0;;
21120;SDS011;12519;43.318;21.898;2023-04-09T13:52:23;30.0;;;24.0;;
21120;SDS011;12519;43.318;21.898;2023-04-09T13:57:01;30.0;;;24.0;;
21120;SDS011;12519;43.318;21.898;2023-04-09T14:01:38;29.0;;;22.0;;
21120;SDS011;12519;43.318;21.898;2023-04-09T14:06:15;29.0;;;22.0;;
21120;SDS011;12519;43.318;21.898;2023-04-09T14:10:52;26.0;;;21.0;;
21120;SDS011;12519;43.318;21.898;2023-04-09T14:15:29;26.0;;;21.0;;
21120;SDS011;12519;43.318;21.898;2023-04-09T14:20:08;23.0;;;20.0;;
21120;SDS011;12519;43.318;21.898;2023-04-09T14:24:46;23.0;;;20.0;;
21120;SDS011;12519;43.318;21.898;2023-04-09T14:29:23;28.0;;;22.0;;
21120;SDS011;12519;43.318;21.898;2023-04-09T14:34:00;28.0;;;22.0;;
21120;SDS011;12519;43.318;21.898;2023-04-09T14:38:36;34.0;;;23.0;;
21120;SDS011;12519;43.318;21.898;2023-04-09T14:43:13;34.0;;;23.0;;
21120;SDS011;12519;43.318;21.898;2023-04-09T14:47:49;34.0;;;23.0;;
21120;SDS011;12519;43.318;21.898;2023-04-09T14:52:25;34.0;;;24.0;;
21120;SDS011;12519;43.318;21.898;2023-04-09T14:57:02;34.0;;;24.0;;
21120;SDS011;12519;43.318;21.898;2023-04-09T15:01:38;34.0;;;25.0;;
21120;SDS011;12519;43.318;21.898;2023-04-09T15:06:15;34.0;;;25.0;;
21120;SDS011;12519;43.318;21.898;2023-04-09T15:10:51;34.0;;;26.0;;
21120;SDS011;12519;43.318;21.898;2023-04-09T15:15:28;34.0;;;26.0;;
21120;SDS011;12519;43.318;21.898;2023-04-09T15:20:07;34.0;;;26.0;;
21120;SDS011;12519;43.318;21.898;2023-04-09T15:24:46;34.0;;;26.0;;
21120;SDS011;12519;43.318;21.898;2023-04-09T15:29:22;28.0;;;24.0;;
21120;SDS011;12519;43.318;21.898;2023-04-09T15:33:59;28.0;;;24.0;;
21120;SDS011;12519;43.318;21.898;2023-04-09T15:38:36;28.0;;;24.0;;
21120;SDS011;12519;43.318;21.898;2023-04-09T15:43:12;23.0;;;21.0;;
21120;SDS011;12519;43.318;21.898;2023-04-09T15:47:49;23.0;;;21.0;;
21120;SDS011;12519;43.318;21.898;2023-04-09T15:52:26;23.0;;;20.0;;
21120;SDS011;12519;43.318;21.898;2023-04-09T15:57:03;23.0;;;20.0;;
21120;SDS011;12519;43.318;21.898;2023-04-09T16:01:40;23.0;;;19.0;;
21120;SDS011;12519;43.318;21.898;2023-04-09T16:06:18;23.0;;;19.0;;
21120;SDS011;12519;43.318;21.898;2023-04-09T16:10:55;28.0;;;20.0;;
21120;SDS011;12519;43.318;21.898;2023-04-09T16:15:31;28.0;;;20.0;;
21120;SDS011;12519;43.318;21.898;2023-04-09T16:20:08;32.0;;;21.0;;
21120;SDS011;12519;43.318;21.898;2023-04-09T16:24:45;32.0;;;21.0;;
21120;SDS011;12519;43.318;21.898;2023-04-09T16:29:21;30.0;;;22.0;;
21120;SDS011;12519;43.318;21.898;2023-04-09T16:34:00;30.0;;;22.0;;
21120;SDS011;12519;43.318;21.898;2023-04-09T16:38:36;30.0;;;22.0;;
21120;SDS011;12519;43.318;21.898;2023-04-09T16:43:13;29.0;;;24.0;;
21120;SDS011;12519;43.318;21.898;2023-04-09T16:47:51;29.0;;;24.0;;
21120;SDS011;12519;43.318;21.898;2023-04-09T16:52:28;34.0;;;25.0;;
21120;SDS011;12519;43.318;21.898;2023-04-09T16:57:05;34.0;;;25.0;;
21120;SDS011;12519;43.318;21.898;2023-04-09T17:01:42;39.0;;;26.0;;
21120;SDS011;12519;43.318;21.898;2023-04-09T17:06:19;39.0;;;26.0;;
21120;SDS011;12519;43.318;21.898;2023-04-09T17:10:56;34.0;;;24.0;;
21120;SDS011;12519;43.318;21.898;2023-04-09T17:15:32;34.0;;;24.0;;
21120;SDS011;12519;43.318;21.898;2023-04-09T17:20:12;30.0;;;23.0;;
21120;SDS011;12519;43.318;21.898;2023-04-09T17:24:48;30.0;;;23.0;;
21120;SDS011;12519;43.318;21.898;2023-04-09T17:29:25;38.0;;;29.0;;
21120;SDS011;12519;43.318;21.898;2023-04-09T17:34:01;38.0;;;29.0;;
21120;SDS011;12519;43.318;21.898;2023-04-09T17:38:38;38.0;;;29.0;;
21120;SDS011;12519;43.318;21.898;2023-04-09T17:43:14;47.0;;;35.0;;
21120;SDS011;12519;43.318;21.898;2023-04-09T17:47:50;47.0;;;35.0;;
21120;SDS011;12519;43.318;21.898;2023-04-09T17:52:27;40.0;;;32.0;;
21120;SDS011;12519;43.318;21.898;2023-04-09T17:57:06;40.0;;;32.0;;
21120;SDS011;12519;43.318;21.898;2023-04-09T18:01:42;32.0;;;28.0;;
21120;SDS011;12519;43.318;21.898;2023-04-09T18:06:19;32.0;;;28.0;;
21120;SDS011;12519;43.318;21.898;2023-04-09T18:10:56;34.0;;;28.0;;
21120;SDS011;12519;43.318;21.898;2023-04-09T18:15:33;34.0;;;28.0;;
21120;SDS011;12519;43.318;21.898;2023-04-09T18:20:12;36.0;;;29.0;;
21120;SDS011;12519;43.318;21.898;2023-04-09T18:24:50;36.0;;;29.0;;
21120;SDS011;12519;43.318;21.898;2023-04-09T18:29:28;38.0;;;32.0;;
21120;SDS011;12519;43.318;21.898;2023-04-09T18:34:06;38.0;;;32.0;;
21120;SDS011;12519;43.318;21.898;2023-04-09T18:38:43;38.0;;;32.0;;
21120;SDS011;12519;43.318;21.898;2023-04-09T18:43:19;40.0;;;35.0;;
21120;SDS011;12519;43.318;21.898;2023-04-09T18:47:55;40.0;;;35.0;;
21120;SDS011;12519;43.318;21.898;2023-04-09T18:52:33;40.0;;;32.0;;
21120;SDS011;12519;43.318;21.898;2023-04-09T18:57:09;40.0;;;32.0;;
21120;SDS011;12519;43.318;21.898;2023-04-09T19:01:45;40.0;;;30.0;;
21120;SDS011;12519;43.318;21.898;2023-04-09T19:06:22;40.0;;;30.0;;
21120;SDS011;12519;43.318;21.898;2023-04-09T19:10:58;38.0;;;30.0;;
21120;SDS011;12519;43.318;21.898;2023-04-09T19:15:35;38.0;;;30.0;;
21120;SDS011;12519;43.318;21.898;2023-04-09T19:20:12;37.0;;;29.0;;
21120;SDS011;12519;43.318;21.898;2023-04-09T19:24:49;37.0;;;29.0;;
21120;SDS011;12519;43.318;21.898;2023-04-09T19:29:26;45.0;;;37.0;;
21120;SDS011;12519;43.318;21.898;2023-04-09T19:34:04;45.0;;;37.0;;
21120;SDS011;12519;43.318;21.898;2023-04-09T19:38:41;45.0;;;37.0;;
21120;SDS011;12519;43.318;21.898;2023-04-09T19:43:18;53.0;;;45.0;;
21120;SDS011;12519;43.318;21.898;2023-04-09T19:47:54;53.0;;;45.0;;
21120;SDS011;12519;43.318;21.898;2023-04-09T19:52:31;48.0;;;38.0;;
21120;SDS011;12519;43.318;21.898;2023-04-09T19:57:08;48.0;;;38.0;;
21120;SDS011;12519;43.318;21.898;2023-04-09T20:01:45;43.0;;;32.0;;
21120;SDS011;12519;43.318;21.898;2023-04-09T20:06:21;43.0;;;32.0;;
21120;SDS011;12519;43.318;21.898;2023-04-09T20:10:58;52.0;;;40.0;;
21120;SDS011;12519;43.318;21.898;2023-04-09T20:15:34;52.0;;;40.0;;
21120;SDS011;12519;43.318;21.898;2023-04-09T20:20:11;60.0;;;49.0;;
21120;SDS011;12519;43.318;21.898;2023-04-09T20:24:48;60.0;;;49.0;;
21120;SDS011;12519;43.318;21.898;2023-04-09T20:29:24;58.0;;;48.0;;
21120;SDS011;12519;43.318;21.898;2023-04-09T20:34:01;58.0;;;48.0;;
21120;SDS011;12519;43.318;21.898;2023-04-09T20:38:38;58.0;;;48.0;;
21120;SDS011;12519;43.318;21.898;2023-04-09T20:43:14;55.0;;;48.0;;
21120;SDS011;12519;43.318;21.898;2023-04-09T20:47:51;55.0;;;48.0;;
21120;SDS011;12519;43.318;21.898;2023-04-09T20:52:28;58.0;;;48.0;;
21120;SDS011;12519;43.318;21.898;2023-04-09T20:57:04;58.0;;;48.0;;
21120;SDS011;12519;43.318;21.898;2023-04-09T21:01:41;61.0;;;48.0;;
21120;SDS011;12519;43.318;21.898;2023-04-09T21:06:18;61.0;;;48.0;;
21120;SDS011;12519;43.318;21.898;2023-04-09T21:10:55;47.0;;;38.0;;
21120;SDS011;12519;43.318;21.898;2023-04-09T21:15:32;47.0;;;38.0;;
21120;SDS011;12519;43.318;21.898;2023-04-09T21:20:11;33.0;;;28.0;;
21120;SDS011;12519;43.318;21.898;2023-04-09T21:24:51;33.0;;;28.0;;
21120;SDS011;12519;43.318;21.898;2023-04-09T21:29:27;60.0;;;46.0;;
21120;SDS011;12519;43.318;21.898;2023-04-09T21:34:03;60.0;;;46.0;;
21120;SDS011;12519;43.318;21.898;2023-04-09T21:38:40;60.0;;;46.0;;
21120;SDS011;12519;43.318;21.898;2023-04-09T21:43:16;88.0;;;63.0;;
21120;SDS011;12519;43.318;21.898;2023-04-09T21:47:53;88.0;;;63.0;;
21120;SDS011;12519;43.318;21.898;2023-04-09T21:52:30;88.0;;;63.0;;
21120;SDS011;12519;43.318;21.898;2023-04-09T21:57:07;88.0;;;63.0;;
21120;SDS011;12519;43.318;21.898;2023-04-09T22:10:57;40.0;;;32.0;;
21120;SDS011;12519;43.318;21.898;2023-04-09T22:15:34;40.0;;;32.0;;
21120;SDS011;12519;43.318;21.898;2023-04-09T22:20:12;40.0;;;32.0;;
21120;SDS011;12519;43.318;21.898;2023-04-09T22:24:49;40.0;;;32.0;;
21120;SDS011;12519;43.318;21.898;2023-04-09T22:29:28;40.0;;;32.0;;
21120;SDS011;12519;43.318;21.898;2023-04-09T22:34:04;41.0;;;30.0;;
21120;SDS011;12519;43.318;21.898;2023-04-09T22:38:41;41.0;;;30.0;;
21120;SDS011;12519;43.318;21.898;2023-04-09T22:43:17;42.0;;;29.0;;
21120;SDS011;12519;43.318;21.898;2023-04-09T22:47:53;42.0;;;29.0;;
21120;SDS011;12519;43.318;21.898;2023-04-09T22:52:30;42.0;;;29.0;;
21120;SDS011;12519;43.318;21.898;2023-04-09T22:57:06;42.0;;;29.0;;
21120;SDS011;12519;43.318;21.898;2023-04-09T23:10:56;38.0;;;29.0;;
21120;SDS011;12519;43.318;21.898;2023-04-09T23:15:33;38.0;;;29.0;;
21120;SDS011;12519;43.318;21.898;2023-04-09T23:20:12;38.0;;;29.0;;
21120;SDS011;12519;43.318;21.898;2023-04-09T23:24:49;38.0;;;29.0;;
21120;SDS011;12519;43.318;21.898;2023-04-09T23:29:25;38.0;;;29.0;;
21120;SDS011;12519;43.318;21.898;2023-04-09T23:34:02;36.0;;;28.0;;
21120;SDS011;12519;43.318;21.898;2023-04-09T23:38:38;36.0;;;28.0;;
21120;SDS011;12519;43.318;21.898;2023-04-09T23:43:16;35.0;;;27.0;;
21120;SDS011;12519;43.318;21.898;2023-04-09T23:47:53;35.0;;;27.0;;
21120;SDS011;12519;43.318;21.898;2023-04-09T23:52:36;34.0;;;27.0;;
21120;SDS011;12519;43.318;21.898;2023-04-09T23:57:13;34.0;;;27.0;;
